sensor_id;sensor_type;location;lat;lon;timestamp;temperature;humidity
35313;DHT22;21425;50.454;30.466;2022-09-01T00:01:34;15.60;99.30
35313;DHT22;21425;50.454;30.466;2022-09-01T00:04:02;15.80;99.30
35313;DHT22;21425;50.454;30.466;2022-09-01T00:06:30;15.60;99.60
35313;DHT22;21425;50.454;30.466;2022-09-01T00:08:59;17.30;99.60
35313;DHT22;21425;50.454;30.466;2022-09-01T00:11:25;15.80;99.60
35313;DHT22;21425;50.454;30.466;2022-09-01T00:13:53;15.60;99.40
35313;DHT22;21425;50.454;30.466;2022-09-01T00:16:19;15.60;99.90
35313;DHT22;21425;50.454;30.466;2022-09-01T00:18:48;15.50;99.50
35313;DHT22;21425;50.454;30.466;2022-09-01T00:21:18;16.50;99.20
35313;DHT22;21425;50.454;30.466;2022-09-01T00:23:45;14.80;97.50
35313;DHT22;21425;50.454;30.466;2022-09-01T00:28:37;15.90;98.30
35313;DHT22;21425;50.454;30.466;2022-09-01T00:31:04;15.50;98.70
35313;DHT22;21425;50.454;30.466;2022-09-01T00:33:32;15.40;98.60
35313;DHT22;21425;50.454;30.466;2022-09-01T00:35:58;16.60;98.20
35313;DHT22;21425;50.454;30.466;2022-09-01T00:38:24;15.40;97.60
35313;DHT22;21425;50.454;30.466;2022-09-01T00:40:50;15.30;97.40
35313;DHT22;21425;50.454;30.466;2022-09-01T00:43:20;15.30;97.20
35313;DHT22;21425;50.454;30.466;2022-09-01T00:45:46;15.20;97.50
35313;DHT22;21425;50.454;30.466;2022-09-01T00:48:14;15.30;96.70
35313;DHT22;21425;50.454;30.466;2022-09-01T00:50:41;16.20;96.60
35313;DHT22;21425;50.454;30.466;2022-09-01T00:53:07;14.50;95.60
35313;DHT22;21425;50.454;30.466;2022-09-01T00:55:36;15.00;95.80
35313;DHT22;21425;50.454;30.466;2022-09-01T00:58:04;15.20;96.10
35313;DHT22;21425;50.454;30.466;2022-09-01T01:00:33;15.00;96.10
35313;DHT22;21425;50.454;30.466;2022-09-01T01:03:02;15.10;96.40
35313;DHT22;21425;50.454;30.466;2022-09-01T01:05:32;15.10;96.70
35313;DHT22;21425;50.454;30.466;2022-09-01T01:07:59;15.10;97.10
35313;DHT22;21425;50.454;30.466;2022-09-01T01:10:30;15.10;98.00
35313;DHT22;21425;50.454;30.466;2022-09-01T01:12:57;15.90;99.20
35313;DHT22;21425;50.454;30.466;2022-09-01T01:15:26;16.00;99.80
35313;DHT22;21425;50.454;30.466;2022-09-01T01:17:52;15.60;99.90
35313;DHT22;21425;50.454;30.466;2022-09-01T01:20:18;15.10;99.90
35313;DHT22;21425;50.454;30.466;2022-09-01T01:23:24;14.60;99.90
35313;DHT22;21425;50.454;30.466;2022-09-01T01:25:54;14.70;99.90
35313;DHT22;21425;50.454;30.466;2022-09-01T01:28:28;14.60;99.90
35313;DHT22;21425;50.454;30.466;2022-09-01T01:31:08;14.60;99.90
35313;DHT22;21425;50.454;30.466;2022-09-01T01:33:49;16.00;99.90
35313;DHT22;21425;50.454;30.466;2022-09-01T01:38:47;15.10;99.90
35313;DHT22;21425;50.454;30.466;2022-09-01T01:41:14;14.50;99.90
35313;DHT22;21425;50.454;30.466;2022-09-01T01:43:40;14.50;99.90
35313;DHT22;21425;50.454;30.466;2022-09-01T01:46:08;14.50;99.90
35313;DHT22;21425;50.454;30.466;2022-09-01T01:48:39;14.80;99.90
35313;DHT22;21425;50.454;30.466;2022-09-01T01:51:06;14.50;99.90
35313;DHT22;21425;50.454;30.466;2022-09-01T01:53:32;14.30;99.90
35313;DHT22;21425;50.454;30.466;2022-09-01T01:55:58;14.50;99.90
35313;DHT22;21425;50.454;30.466;2022-09-01T01:58:26;13.90;99.90
35313;DHT22;21425;50.454;30.466;2022-09-01T02:00:54;13.70;99.90
35313;DHT22;21425;50.454;30.466;2022-09-01T02:03:22;13.50;99.90
35313;DHT22;21425;50.454;30.466;2022-09-01T02:05:51;13.40;99.90
35313;DHT22;21425;50.454;30.466;2022-09-01T02:08:19;13.40;99.90
35313;DHT22;21425;50.454;30.466;2022-09-01T02:10:49;13.30;99.90
35313;DHT22;21425;50.454;30.466;2022-09-01T02:13:18;13.20;99.90
35313;DHT22;21425;50.454;30.466;2022-09-01T02:15:51;13.30;99.90
35313;DHT22;21425;50.454;30.466;2022-09-01T02:18:29;13.60;99.90
35313;DHT22;21425;50.454;30.466;2022-09-01T02:20:55;13.30;99.90
35313;DHT22;21425;50.454;30.466;2022-09-01T02:23:23;12.90;99.90
35313;DHT22;21425;50.454;30.466;2022-09-01T02:25:59;13.20;99.90
35313;DHT22;21425;50.454;30.466;2022-09-01T02:28:27;13.10;99.90
35313;DHT22;21425;50.454;30.466;2022-09-01T02:30:56;13.60;99.90
35313;DHT22;21425;50.454;30.466;2022-09-01T02:33:25;14.40;99.90
35313;DHT22;21425;50.454;30.466;2022-09-01T02:35:56;12.80;99.90
35313;DHT22;21425;50.454;30.466;2022-09-01T02:38:22;14.20;99.90
35313;DHT22;21425;50.454;30.466;2022-09-01T02:40:56;12.70;99.90
35313;DHT22;21425;50.454;30.466;2022-09-01T02:43:23;12.80;99.90
35313;DHT22;21425;50.454;30.466;2022-09-01T02:45:54;12.80;99.90
35313;DHT22;21425;50.454;30.466;2022-09-01T02:48:24;14.70;99.90
35313;DHT22;21425;50.454;30.466;2022-09-01T02:50:51;12.80;99.90
35313;DHT22;21425;50.454;30.466;2022-09-01T02:53:16;14.00;99.90
35313;DHT22;21425;50.454;30.466;2022-09-01T02:55:43;12.70;99.90
35313;DHT22;21425;50.454;30.466;2022-09-01T02:58:09;12.90;99.90
35313;DHT22;21425;50.454;30.466;2022-09-01T03:00:41;13.00;99.90
35313;DHT22;21425;50.454;30.466;2022-09-01T03:03:08;12.80;99.90
35313;DHT22;21425;50.454;30.466;2022-09-01T03:05:34;12.20;99.90
35313;DHT22;21425;50.454;30.466;2022-09-01T03:08:09;12.80;99.90
35313;DHT22;21425;50.454;30.466;2022-09-01T03:10:39;12.50;99.90
35313;DHT22;21425;50.454;30.466;2022-09-01T03:13:11;13.40;99.90
35313;DHT22;21425;50.454;30.466;2022-09-01T03:15:39;12.60;99.90
35313;DHT22;21425;50.454;30.466;2022-09-01T03:18:07;12.30;99.90
35313;DHT22;21425;50.454;30.466;2022-09-01T03:20:34;12.50;99.90
35313;DHT22;21425;50.454;30.466;2022-09-01T03:23:01;13.40;99.90
35313;DHT22;21425;50.454;30.466;2022-09-01T03:25:29;12.30;99.90
35313;DHT22;21425;50.454;30.466;2022-09-01T03:27:56;12.50;99.90
35313;DHT22;21425;50.454;30.466;2022-09-01T03:30:28;12.40;99.90
35313;DHT22;21425;50.454;30.466;2022-09-01T03:32:55;12.50;99.90
35313;DHT22;21425;50.454;30.466;2022-09-01T03:35:22;14.00;99.90
35313;DHT22;21425;50.454;30.466;2022-09-01T03:37:48;12.40;99.90
35313;DHT22;21425;50.454;30.466;2022-09-01T03:40:14;12.00;99.90
35313;DHT22;21425;50.454;30.466;2022-09-01T03:42:41;12.70;99.90
35313;DHT22;21425;50.454;30.466;2022-09-01T03:45:08;12.50;99.90
35313;DHT22;21425;50.454;30.466;2022-09-01T03:47:43;12.50;99.90
35313;DHT22;21425;50.454;30.466;2022-09-01T03:50:17;12.50;99.90
35313;DHT22;21425;50.454;30.466;2022-09-01T03:52:50;12.70;99.90
35313;DHT22;21425;50.454;30.466;2022-09-01T03:55:20;12.30;99.90
35313;DHT22;21425;50.454;30.466;2022-09-01T03:57:56;12.50;99.90
35313;DHT22;21425;50.454;30.466;2022-09-01T04:00:25;12.40;99.90
35313;DHT22;21425;50.454;30.466;2022-09-01T04:02:57;14.20;99.90
35313;DHT22;21425;50.454;30.466;2022-09-01T04:05:27;13.10;99.90
35313;DHT22;21425;50.454;30.466;2022-09-01T04:07:58;13.00;99.90
35313;DHT22;21425;50.454;30.466;2022-09-01T04:10:29;12.80;99.90
35313;DHT22;21425;50.454;30.466;2022-09-01T04:12:57;12.60;99.90
35313;DHT22;21425;50.454;30.466;2022-09-01T04:15:24;12.70;99.90
35313;DHT22;21425;50.454;30.466;2022-09-01T04:17:50;12.60;99.90
35313;DHT22;21425;50.454;30.466;2022-09-01T04:20:46;12.80;99.90
35313;DHT22;21425;50.454;30.466;2022-09-01T04:23:26;12.90;99.90
35313;DHT22;21425;50.454;30.466;2022-09-01T04:26:13;14.40;99.90
35313;DHT22;21425;50.454;30.466;2022-09-01T04:28:46;13.70;99.90
35313;DHT22;21425;50.454;30.466;2022-09-01T04:31:17;13.60;99.90
35313;DHT22;21425;50.454;30.466;2022-09-01T04:33:46;13.80;99.90
35313;DHT22;21425;50.454;30.466;2022-09-01T04:36:21;14.30;99.90
35313;DHT22;21425;50.454;30.466;2022-09-01T04:38:51;13.70;99.90
35313;DHT22;21425;50.454;30.466;2022-09-01T04:41:21;14.20;99.90
35313;DHT22;21425;50.454;30.466;2022-09-01T04:43:48;14.60;99.90
35313;DHT22;21425;50.454;30.466;2022-09-01T04:46:17;14.50;99.90
35313;DHT22;21425;50.454;30.466;2022-09-01T04:48:43;15.90;99.90
35313;DHT22;21425;50.454;30.466;2022-09-01T04:51:10;13.60;99.90
35313;DHT22;21425;50.454;30.466;2022-09-01T04:53:37;15.70;99.90
35313;DHT22;21425;50.454;30.466;2022-09-01T04:56:06;14.70;99.90
35313;DHT22;21425;50.454;30.466;2022-09-01T04:58:32;14.40;99.90
35313;DHT22;21425;50.454;30.466;2022-09-01T05:00:58;14.50;99.90
35313;DHT22;21425;50.454;30.466;2022-09-01T05:03:25;15.70;99.90
35313;DHT22;21425;50.454;30.466;2022-09-01T05:05:51;15.60;99.90
35313;DHT22;21425;50.454;30.466;2022-09-01T05:08:20;14.90;99.90
35313;DHT22;21425;50.454;30.466;2022-09-01T05:10:48;15.80;99.90
35313;DHT22;21425;50.454;30.466;2022-09-01T05:13:16;15.30;99.90
35313;DHT22;21425;50.454;30.466;2022-09-01T05:15:44;15.30;99.90
35313;DHT22;21425;50.454;30.466;2022-09-01T05:18:17;15.30;99.90
35313;DHT22;21425;50.454;30.466;2022-09-01T05:20:50;14.70;99.90
35313;DHT22;21425;50.454;30.466;2022-09-01T05:23:16;16.30;99.90
35313;DHT22;21425;50.454;30.466;2022-09-01T05:25:48;15.80;99.90
35313;DHT22;21425;50.454;30.466;2022-09-01T05:28:17;16.00;99.90
35313;DHT22;21425;50.454;30.466;2022-09-01T05:30:45;16.20;99.90
35313;DHT22;21425;50.454;30.466;2022-09-01T05:33:13;16.30;99.90
35313;DHT22;21425;50.454;30.466;2022-09-01T05:35:42;16.20;99.90
35313;DHT22;21425;50.454;30.466;2022-09-01T05:38:17;15.50;99.90
35313;DHT22;21425;50.454;30.466;2022-09-01T05:43:11;16.70;99.90
35313;DHT22;21425;50.454;30.466;2022-09-01T05:45:38;17.50;99.90
35313;DHT22;21425;50.454;30.466;2022-09-01T05:48:07;15.60;99.90
35313;DHT22;21425;50.454;30.466;2022-09-01T05:50:34;17.60;99.90
35313;DHT22;21425;50.454;30.466;2022-09-01T05:52:59;16.90;99.90
35313;DHT22;21425;50.454;30.466;2022-09-01T05:55:25;16.80;99.90
35313;DHT22;21425;50.454;30.466;2022-09-01T05:57:52;16.90;99.90
35313;DHT22;21425;50.454;30.466;2022-09-01T06:00:18;17.10;99.90
35313;DHT22;21425;50.454;30.466;2022-09-01T06:02:45;16.80;99.90
35313;DHT22;21425;50.454;30.466;2022-09-01T06:05:11;17.10;99.90
35313;DHT22;21425;50.454;30.466;2022-09-01T06:07:39;17.90;99.90
35313;DHT22;21425;50.454;30.466;2022-09-01T06:10:08;17.10;99.90
35313;DHT22;21425;50.454;30.466;2022-09-01T06:12:33;17.00;99.90
35313;DHT22;21425;50.454;30.466;2022-09-01T06:14:59;17.00;99.90
35313;DHT22;21425;50.454;30.466;2022-09-01T06:17:26;17.80;99.90
35313;DHT22;21425;50.454;30.466;2022-09-01T06:19:54;16.10;99.90
35313;DHT22;21425;50.454;30.466;2022-09-01T06:22:25;16.90;97.80
35313;DHT22;21425;50.454;30.466;2022-09-01T06:24:51;16.50;97.40
35313;DHT22;21425;50.454;30.466;2022-09-01T06:27:19;17.00;98.20
35313;DHT22;21425;50.454;30.466;2022-09-01T06:29:46;17.20;97.30
35313;DHT22;21425;50.454;30.466;2022-09-01T06:32:13;17.50;93.70
35313;DHT22;21425;50.454;30.466;2022-09-01T06:34:41;17.60;93.80
35313;DHT22;21425;50.454;30.466;2022-09-01T06:37:08;16.80;93.30
35313;DHT22;21425;50.454;30.466;2022-09-01T06:39:35;16.90;91.70
35313;DHT22;21425;50.454;30.466;2022-09-01T06:42:00;16.80;91.20
35313;DHT22;21425;50.454;30.466;2022-09-01T06:44:27;17.10;91.40
35313;DHT22;21425;50.454;30.466;2022-09-01T06:46:55;16.90;91.80
35313;DHT22;21425;50.454;30.466;2022-09-01T06:49:21;16.70;91.60
35313;DHT22;21425;50.454;30.466;2022-09-01T06:51:47;16.80;91.90
35313;DHT22;21425;50.454;30.466;2022-09-01T06:54:16;17.20;90.30
35313;DHT22;21425;50.454;30.466;2022-09-01T06:56:44;17.20;89.40
35313;DHT22;21425;50.454;30.466;2022-09-01T06:59:11;17.00;85.50
35313;DHT22;21425;50.454;30.466;2022-09-01T07:01:37;17.40;86.20
35313;DHT22;21425;50.454;30.466;2022-09-01T07:04:03;16.80;83.00
35313;DHT22;21425;50.454;30.466;2022-09-01T07:06:29;17.60;84.80
35313;DHT22;21425;50.454;30.466;2022-09-01T07:08:57;17.80;79.50
35313;DHT22;21425;50.454;30.466;2022-09-01T07:11:31;18.30;78.00
35313;DHT22;21425;50.454;30.466;2022-09-01T07:14:00;18.20;76.70
35313;DHT22;21425;50.454;30.466;2022-09-01T07:16:29;18.10;77.40
35313;DHT22;21425;50.454;30.466;2022-09-01T07:18:57;19.20;73.60
35313;DHT22;21425;50.454;30.466;2022-09-01T07:21:25;18.90;74.20
35313;DHT22;21425;50.454;30.466;2022-09-01T07:23:51;18.70;73.60
35313;DHT22;21425;50.454;30.466;2022-09-01T07:26:18;19.00;74.30
35313;DHT22;21425;50.454;30.466;2022-09-01T07:28:48;18.90;74.00
35313;DHT22;21425;50.454;30.466;2022-09-01T07:31:27;18.30;73.60
35313;DHT22;21425;50.454;30.466;2022-09-01T07:33:55;18.60;74.30
35313;DHT22;21425;50.454;30.466;2022-09-01T07:36:23;17.90;75.00
35313;DHT22;21425;50.454;30.466;2022-09-01T07:38:49;16.90;72.90
35313;DHT22;21425;50.454;30.466;2022-09-01T07:41:19;18.30;74.50
35313;DHT22;21425;50.454;30.466;2022-09-01T07:43:46;17.70;76.20
35313;DHT22;21425;50.454;30.466;2022-09-01T07:46:13;18.10;78.30
35313;DHT22;21425;50.454;30.466;2022-09-01T07:48:39;18.10;76.90
35313;DHT22;21425;50.454;30.466;2022-09-01T07:51:04;16.60;76.40
35313;DHT22;21425;50.454;30.466;2022-09-01T07:53:33;17.80;79.00
35313;DHT22;21425;50.454;30.466;2022-09-01T07:56:04;18.70;79.00
35313;DHT22;21425;50.454;30.466;2022-09-01T07:58:34;18.40;79.60
35313;DHT22;21425;50.454;30.466;2022-09-01T08:01:05;17.60;80.00
35313;DHT22;21425;50.454;30.466;2022-09-01T08:03:31;18.20;77.90
35313;DHT22;21425;50.454;30.466;2022-09-01T08:06:08;18.10;77.90
35313;DHT22;21425;50.454;30.466;2022-09-01T08:08:35;18.20;77.20
35313;DHT22;21425;50.454;30.466;2022-09-01T08:11:01;18.20;78.00
35313;DHT22;21425;50.454;30.466;2022-09-01T08:13:27;18.30;77.60
35313;DHT22;21425;50.454;30.466;2022-09-01T08:15:53;18.20;78.10
35313;DHT22;21425;50.454;30.466;2022-09-01T08:18:19;17.20;75.20
35313;DHT22;21425;50.454;30.466;2022-09-01T08:20:45;18.00;76.90
35313;DHT22;21425;50.454;30.466;2022-09-01T08:23:18;18.10;77.00
35313;DHT22;21425;50.454;30.466;2022-09-01T08:25:44;18.00;76.70
35313;DHT22;21425;50.454;30.466;2022-09-01T08:28:12;18.60;74.00
35313;DHT22;21425;50.454;30.466;2022-09-01T08:30:40;19.50;73.70
35313;DHT22;21425;50.454;30.466;2022-09-01T08:33:06;19.00;72.60
35313;DHT22;21425;50.454;30.466;2022-09-01T08:35:34;17.90;69.30
35313;DHT22;21425;50.454;30.466;2022-09-01T08:37:59;17.60;72.00
35313;DHT22;21425;50.454;30.466;2022-09-01T08:40:25;18.00;73.00
35313;DHT22;21425;50.454;30.466;2022-09-01T08:43:09;17.60;70.20
35313;DHT22;21425;50.454;30.466;2022-09-01T08:45:49;19.60;70.00
35313;DHT22;21425;50.454;30.466;2022-09-01T08:48:23;18.70;66.50
35313;DHT22;21425;50.454;30.466;2022-09-01T08:50:55;17.60;66.20
35313;DHT22;21425;50.454;30.466;2022-09-01T08:53:34;19.40;67.30
35313;DHT22;21425;50.454;30.466;2022-09-01T08:56:01;17.00;66.10
35313;DHT22;21425;50.454;30.466;2022-09-01T08:58:29;18.40;65.10
35313;DHT22;21425;50.454;30.466;2022-09-01T09:01:00;18.40;63.00
35313;DHT22;21425;50.454;30.466;2022-09-01T09:03:35;19.20;63.20
35313;DHT22;21425;50.454;30.466;2022-09-01T09:06:22;20.00;62.50
35313;DHT22;21425;50.454;30.466;2022-09-01T09:08:54;19.10;59.70
35313;DHT22;21425;50.454;30.466;2022-09-01T09:17:20;20.70;61.70
35313;DHT22;21425;50.454;30.466;2022-09-01T09:22:16;20.20;60.90
35313;DHT22;21425;50.454;30.466;2022-09-01T09:24:48;19.30;59.60
35313;DHT22;21425;50.454;30.466;2022-09-01T09:27:23;21.20;60.00
35313;DHT22;21425;50.454;30.466;2022-09-01T09:29:57;20.00;59.30
35313;DHT22;21425;50.454;30.466;2022-09-01T09:32:44;19.90;60.50
35313;DHT22;21425;50.454;30.466;2022-09-01T09:40:25;19.40;60.60
35313;DHT22;21425;50.454;30.466;2022-09-01T09:47:55;17.70;63.10
35313;DHT22;21425;50.454;30.466;2022-09-01T09:50:28;19.20;62.80
35313;DHT22;21425;50.454;30.466;2022-09-01T09:53:29;18.40;61.80
35313;DHT22;21425;50.454;30.466;2022-09-01T09:56:03;18.90;61.30
35313;DHT22;21425;50.454;30.466;2022-09-01T09:58:38;19.20;60.10
35313;DHT22;21425;50.454;30.466;2022-09-01T10:01:14;19.20;60.70
35313;DHT22;21425;50.454;30.466;2022-09-01T10:03:54;19.30;58.10
35313;DHT22;21425;50.454;30.466;2022-09-01T10:08:59;20.00;57.70
35313;DHT22;21425;50.454;30.466;2022-09-01T10:11:32;19.40;57.00
35313;DHT22;21425;50.454;30.466;2022-09-01T10:14:00;19.30;57.80
35313;DHT22;21425;50.454;30.466;2022-09-01T10:16:30;19.10;58.50
35313;DHT22;21425;50.454;30.466;2022-09-01T10:18:58;18.00;55.40
35313;DHT22;21425;50.454;30.466;2022-09-01T10:21:36;19.70;55.60
35313;DHT22;21425;50.454;30.466;2022-09-01T10:26:52;21.10;56.20
35313;DHT22;21425;50.454;30.466;2022-09-01T10:29:25;20.40;57.80
35313;DHT22;21425;50.454;30.466;2022-09-01T10:31:54;18.30;58.50
35313;DHT22;21425;50.454;30.466;2022-09-01T10:34:21;18.90;58.40
35313;DHT22;21425;50.454;30.466;2022-09-01T10:36:48;18.90;58.90
35313;DHT22;21425;50.454;30.466;2022-09-01T10:39:17;18.20;56.10
35313;DHT22;21425;50.454;30.466;2022-09-01T10:44:21;19.80;55.00
35313;DHT22;21425;50.454;30.466;2022-09-01T10:46:48;18.20;53.30
35313;DHT22;21425;50.454;30.466;2022-09-01T10:51:51;20.90;54.60
35313;DHT22;21425;50.454;30.466;2022-09-01T10:57:33;18.70;52.30
35313;DHT22;21425;50.454;30.466;2022-09-01T11:06:07;20.20;49.90
35313;DHT22;21425;50.454;30.466;2022-09-01T11:14:01;20.90;50.70
35313;DHT22;21425;50.454;30.466;2022-09-01T11:16:38;19.20;48.60
35313;DHT22;21425;50.454;30.466;2022-09-01T11:24:44;20.80;50.90
35313;DHT22;21425;50.454;30.466;2022-09-01T11:27:12;20.60;49.30
35313;DHT22;21425;50.454;30.466;2022-09-01T11:30:08;21.10;49.20
35313;DHT22;21425;50.454;30.466;2022-09-01T11:32:36;19.70;50.90
35313;DHT22;21425;50.454;30.466;2022-09-01T11:35:04;19.90;51.50
35313;DHT22;21425;50.454;30.466;2022-09-01T11:40:00;20.30;50.20
35313;DHT22;21425;50.454;30.466;2022-09-01T11:42:30;20.60;47.60
35313;DHT22;21425;50.454;30.466;2022-09-01T11:47:37;20.50;48.90
35313;DHT22;21425;50.454;30.466;2022-09-01T11:50:06;20.90;49.10
35313;DHT22;21425;50.454;30.466;2022-09-01T11:52:35;19.70;47.90
35313;DHT22;21425;50.454;30.466;2022-09-01T11:55:04;21.00;48.30
35313;DHT22;21425;50.454;30.466;2022-09-01T11:57:31;19.10;48.50
35313;DHT22;21425;50.454;30.466;2022-09-01T11:59:59;19.40;49.50
35313;DHT22;21425;50.454;30.466;2022-09-01T12:02:31;21.10;49.90
35313;DHT22;21425;50.454;30.466;2022-09-01T12:04:59;20.30;49.10
35313;DHT22;21425;50.454;30.466;2022-09-01T12:10:03;21.30;46.90
35313;DHT22;21425;50.454;30.466;2022-09-01T12:12:38;20.50;48.10
35313;DHT22;21425;50.454;30.466;2022-09-01T12:15:16;20.00;48.00
35313;DHT22;21425;50.454;30.466;2022-09-01T12:17:42;20.80;50.10
35313;DHT22;21425;50.454;30.466;2022-09-01T12:20:29;20.70;50.60
35313;DHT22;21425;50.454;30.466;2022-09-01T12:22:58;18.70;48.80
35313;DHT22;21425;50.454;30.466;2022-09-01T12:25:27;19.80;48.90
35313;DHT22;21425;50.454;30.466;2022-09-01T12:27:53;20.90;47.60
35313;DHT22;21425;50.454;30.466;2022-09-01T12:30:20;21.80;43.70
35313;DHT22;21425;50.454;30.466;2022-09-01T12:32:46;22.90;40.20
35313;DHT22;21425;50.454;30.466;2022-09-01T12:35:25;22.90;41.60
35313;DHT22;21425;50.454;30.466;2022-09-01T12:37:51;20.90;41.80
35313;DHT22;21425;50.454;30.466;2022-09-01T12:40:37;22.40;39.00
35313;DHT22;21425;50.454;30.466;2022-09-01T12:43:02;23.90;36.10
35313;DHT22;21425;50.454;30.466;2022-09-01T12:45:43;25.20;36.70
35313;DHT22;21425;50.454;30.466;2022-09-01T12:48:30;25.60;30.70
35313;DHT22;21425;50.454;30.466;2022-09-01T12:50:59;24.00;31.90
35313;DHT22;21425;50.454;30.466;2022-09-01T12:53:26;27.20;31.60
35313;DHT22;21425;50.454;30.466;2022-09-01T12:56:02;24.50;30.00
35313;DHT22;21425;50.454;30.466;2022-09-01T12:58:29;22.60;32.50
35313;DHT22;21425;50.454;30.466;2022-09-01T13:01:25;23.40;33.40
35313;DHT22;21425;50.454;30.466;2022-09-01T13:04:11;21.50;35.10
35313;DHT22;21425;50.454;30.466;2022-09-01T13:06:37;22.60;34.40
35313;DHT22;21425;50.454;30.466;2022-09-01T13:11:29;26.80;31.10
35313;DHT22;21425;50.454;30.466;2022-09-01T13:13:54;25.50;30.60
35313;DHT22;21425;50.454;30.466;2022-09-01T13:16:21;26.60;29.00
35313;DHT22;21425;50.454;30.466;2022-09-01T13:18:47;29.00;27.80
35313;DHT22;21425;50.454;30.466;2022-09-01T13:21:13;29.40;26.60
35313;DHT22;21425;50.454;30.466;2022-09-01T13:23:39;25.50;26.60
35313;DHT22;21425;50.454;30.466;2022-09-01T13:26:05;26.40;26.90
35313;DHT22;21425;50.454;30.466;2022-09-01T13:28:30;26.80;27.50
35313;DHT22;21425;50.454;30.466;2022-09-01T13:30:59;24.80;27.70
35313;DHT22;21425;50.454;30.466;2022-09-01T13:33:26;25.10;28.30
35313;DHT22;21425;50.454;30.466;2022-09-01T13:35:52;23.20;28.00
35313;DHT22;21425;50.454;30.466;2022-09-01T13:38:19;24.60;29.60
35313;DHT22;21425;50.454;30.466;2022-09-01T13:40:47;23.60;29.90
35313;DHT22;21425;50.454;30.466;2022-09-01T13:43:13;22.60;31.60
35313;DHT22;21425;50.454;30.466;2022-09-01T13:48:08;22.70;31.10
35313;DHT22;21425;50.454;30.466;2022-09-01T13:50:34;23.10;30.00
35313;DHT22;21425;50.454;30.466;2022-09-01T13:53:00;26.50;28.30
35313;DHT22;21425;50.454;30.466;2022-09-01T13:55:29;26.70;26.50
35313;DHT22;21425;50.454;30.466;2022-09-01T13:57:55;24.60;26.00
35313;DHT22;21425;50.454;30.466;2022-09-01T14:00:25;26.70;25.70
35313;DHT22;21425;50.454;30.466;2022-09-01T14:02:53;26.40;24.80
35313;DHT22;21425;50.454;30.466;2022-09-01T14:05:21;25.60;25.50
35313;DHT22;21425;50.454;30.466;2022-09-01T14:10:15;25.00;26.80
35313;DHT22;21425;50.454;30.466;2022-09-01T14:12:41;24.80;27.30
35313;DHT22;21425;50.454;30.466;2022-09-01T14:15:09;23.60;29.10
35313;DHT22;21425;50.454;30.466;2022-09-01T14:17:36;25.00;27.30
35313;DHT22;21425;50.454;30.466;2022-09-01T14:20:04;24.70;25.10
35313;DHT22;21425;50.454;30.466;2022-09-01T14:22:32;25.40;25.20
35313;DHT22;21425;50.454;30.466;2022-09-01T14:24:58;26.10;26.00
35313;DHT22;21425;50.454;30.466;2022-09-01T14:27:24;28.20;23.90
35313;DHT22;21425;50.454;30.466;2022-09-01T14:29:50;27.00;23.10
35313;DHT22;21425;50.454;30.466;2022-09-01T14:32:20;26.10;24.40
35313;DHT22;21425;50.454;30.466;2022-09-01T14:34:48;24.90;28.10
35313;DHT22;21425;50.454;30.466;2022-09-01T14:37:14;26.80;24.40
35313;DHT22;21425;50.454;30.466;2022-09-01T14:39:40;26.90;24.90
35313;DHT22;21425;50.454;30.466;2022-09-01T14:42:06;28.60;23.20
35313;DHT22;21425;50.454;30.466;2022-09-01T14:44:35;28.30;23.30
35313;DHT22;21425;50.454;30.466;2022-09-01T14:47:02;28.60;22.40
35313;DHT22;21425;50.454;30.466;2022-09-01T14:49:31;28.70;22.50
35313;DHT22;21425;50.454;30.466;2022-09-01T14:54:29;26.00;26.50
35313;DHT22;21425;50.454;30.466;2022-09-01T14:56:54;26.20;27.20
35313;DHT22;21425;50.454;30.466;2022-09-01T14:59:20;24.50;27.00
35313;DHT22;21425;50.454;30.466;2022-09-01T15:01:45;24.40;28.60
35313;DHT22;21425;50.454;30.466;2022-09-01T15:04:11;24.30;28.80
35313;DHT22;21425;50.454;30.466;2022-09-01T15:06:37;24.30;29.40
35313;DHT22;21425;50.454;30.466;2022-09-01T15:09:02;23.70;29.70
35313;DHT22;21425;50.454;30.466;2022-09-01T15:11:28;23.40;30.10
35313;DHT22;21425;50.454;30.466;2022-09-01T15:13:53;23.30;30.80
35313;DHT22;21425;50.454;30.466;2022-09-01T15:16:22;23.30;30.30
35313;DHT22;21425;50.454;30.466;2022-09-01T15:18:49;25.50;28.00
35313;DHT22;21425;50.454;30.466;2022-09-01T15:21:26;25.60;28.40
35313;DHT22;21425;50.454;30.466;2022-09-01T15:23:53;26.20;28.70
35313;DHT22;21425;50.454;30.466;2022-09-01T15:26:19;24.10;28.30
35313;DHT22;21425;50.454;30.466;2022-09-01T15:28:46;24.10;29.20
35313;DHT22;21425;50.454;30.466;2022-09-01T15:33:39;23.40;29.40
35313;DHT22;21425;50.454;30.466;2022-09-01T15:36:05;23.10;31.40
35313;DHT22;21425;50.454;30.466;2022-09-01T15:38:32;23.40;30.80
35313;DHT22;21425;50.454;30.466;2022-09-01T15:40:57;23.70;30.10
35313;DHT22;21425;50.454;30.466;2022-09-01T15:43:27;23.60;30.70
35313;DHT22;21425;50.454;30.466;2022-09-01T15:45:53;24.60;29.60
35313;DHT22;21425;50.454;30.466;2022-09-01T15:48:19;26.60;29.00
35313;DHT22;21425;50.454;30.466;2022-09-01T15:50:45;25.50;29.60
35313;DHT22;21425;50.454;30.466;2022-09-01T15:53:10;24.60;29.10
35313;DHT22;21425;50.454;30.466;2022-09-01T15:55:43;24.50;29.70
35313;DHT22;21425;50.454;30.466;2022-09-01T15:58:10;23.90;30.70
35313;DHT22;21425;50.454;30.466;2022-09-01T16:00:38;22.80;31.70
35313;DHT22;21425;50.454;30.466;2022-09-01T16:03:04;22.80;32.10
35313;DHT22;21425;50.454;30.466;2022-09-01T16:05:33;22.80;32.30
35313;DHT22;21425;50.454;30.466;2022-09-01T16:08:00;22.80;32.00
35313;DHT22;21425;50.454;30.466;2022-09-01T16:10:28;22.70;32.60
35313;DHT22;21425;50.454;30.466;2022-09-01T16:12:54;22.90;33.70
35313;DHT22;21425;50.454;30.466;2022-09-01T16:15:22;21.30;34.80
35313;DHT22;21425;50.454;30.466;2022-09-01T16:20:26;20.10;41.20
35313;DHT22;21425;50.454;30.466;2022-09-01T16:28:32;18.90;46.30
35313;DHT22;21425;50.454;30.466;2022-09-01T16:31:16;18.80;47.60
35313;DHT22;21425;50.454;30.466;2022-09-01T16:33:48;18.20;48.40
35313;DHT22;21425;50.454;30.466;2022-09-01T16:39:15;17.70;50.00
35313;DHT22;21425;50.454;30.466;2022-09-01T16:47:45;17.10;51.20
35313;DHT22;21425;50.454;30.466;2022-09-01T16:50:32;17.60;52.10
35313;DHT22;21425;50.454;30.466;2022-09-01T16:56:08;17.30;53.90
35313;DHT22;21425;50.454;30.466;2022-09-01T17:01:25;15.60;53.20
35313;DHT22;21425;50.454;30.466;2022-09-01T17:04:41;17.10;54.60
35313;DHT22;21425;50.454;30.466;2022-09-01T17:14:58;16.60;55.60
35313;DHT22;21425;50.454;30.466;2022-09-01T17:20:32;16.50;55.80